Terminal Aerodrome Forecast
Issued by NWS

Home | Current Version | Previous Version | Text Only | Print | Product List | Glossary On
Versions: 1 2 3 4 5 6 7 8 9 10 11 12 13 14 15 16 17 18 19 20 21 22 23 24 25 26 27 28 29 30 31
000
FTUS41 KOKX 261736
TAFHPN
TAF
KHPN 261736Z 2618/2718 03007KT P6SM BKN009 OVC012
     FM270000 02004KT 3SM BR OVC005
     FM270300 VRB03KT 3/4SM BR OVC003
     FM271300 VRB03KT 1SM BR BKN003 OVC007
     FM271500 15005KT P6SM FEW007 SCT012 BKN030
      AMD NOT SKED=

USA.gov is the U.S. government's official web portal to all federal, state and local government web resources and services.